Time;durP1;ratioP1;P1;durP2;ratioP2;P2;SDS_P1;SDS_P2;PMS_P1;PMS_P2;Temp;Humidity;BMP_temperature;BMP_pressure;BME280_temperature;BME280_humidity;BME280_pressure;Samples;Min_cycle;Max_cycle;Signal;HPM_P1;HPM_P2
2023/10/11 00:03:04;;;;;;;15.00;6.90;;;;;;;16.51;100.00;101150.00;5036132;28;20053;-76
2023/10/11 00:05:39;;;;;;;17.58;7.30;;;;;;;16.53;100.00;101151.22;5036471;28;20032;-75
2023/10/11 00:08:05;;;;;;;16.92;6.85;;;;;;;16.44;100.00;101154.50;5054455;28;20032;-76
2023/10/11 00:10:31;;;;;;;19.92;8.05;;;;;;;16.43;100.00;101152.88;5026977;28;20642;-76
2023/10/11 00:12:59;;;;;;;15.90;8.13;;;;;;;16.43;100.00;101155.72;5046869;28;20079;-76
2023/10/11 00:15:29;;;;;;;16.40;9.02;;;;;;;16.49;100.00;101158.13;5041607;28;20469;-76
2023/10/11 00:17:57;;;;;;;17.48;7.53;;;;;;;16.48;100.00;101154.47;5043999;28;20044;-76
2023/10/11 00:23:03;;;;;;;19.08;8.95;;;;;;;16.44;100.00;101142.38;5036148;28;20517;-74
2023/10/11 00:25:29;;;;;;;18.80;8.55;;;;;;;16.43;100.00;101140.78;5036700;28;20355;-74
2023/10/11 00:27:58;;;;;;;21.65;8.77;;;;;;;16.43;100.00;101138.75;5045778;28;20049;-74
2023/10/11 00:30:25;;;;;;;16.38;9.25;;;;;;;16.41;100.00;101135.53;5037285;28;20504;-73
2023/10/11 00:32:52;;;;;;;16.67;9.07;;;;;;;16.42;100.00;101125.88;5043292;28;20036;-73
2023/10/11 00:35:18;;;;;;;19.10;8.30;;;;;;;16.42;100.00;101134.34;5031209;28;20041;-74
2023/10/11 00:37:51;;;;;;;22.08;8.50;;;;;;;16.37;100.00;101131.94;5032401;28;20451;-74
2023/10/11 00:40:25;;;;;;;17.00;9.35;;;;;;;16.42;100.00;101131.50;5022974;28;20412;-74
2023/10/11 00:42:51;;;;;;;22.00;7.75;;;;;;;16.41;100.00;101131.91;5050121;28;20025;-74
2023/10/11 00:45:17;;;;;;;12.25;8.30;;;;;;;16.43;100.00;101124.63;5036850;28;20081;-74
2023/10/11 00:47:45;;;;;;;12.80;7.72;;;;;;;16.39;100.00;101118.19;5021376;28;20196;-74
2023/10/11 00:50:14;;;;;;;18.30;8.30;;;;;;;16.40;100.00;101122.66;5022444;28;20125;-74
2023/10/11 00:52:43;;;;;;;18.85;10.02;;;;;;;16.38;100.00;101130.72;5047061;28;20036;-74
2023/10/11 00:55:16;;;;;;;17.48;10.43;;;;;;;16.35;100.00;101140.00;5043293;28;20043;-74
2023/10/11 00:57:45;;;;;;;20.58;9.60;;;;;;;16.39;100.00;101134.34;5024646;28;20033;-74
2023/10/11 01:00:13;;;;;;;19.38;8.15;;;;;;;16.36;100.00;101127.50;5025058;28;20033;-74
2023/10/11 01:02:39;;;;;;;18.55;8.52;;;;;;;16.36;100.00;101129.50;5039730;28;20028;-74
2023/10/11 01:05:06;;;;;;;23.08;9.45;;;;;;;16.34;100.00;101138.41;5033642;28;20028;-74
2023/10/11 01:07:32;;;;;;;22.60;9.55;;;;;;;16.35;100.00;101134.34;5024358;28;20036;-74
2023/10/11 01:09:57;;;;;;;20.63;9.52;;;;;;;16.37;100.00;101131.13;5038574;28;20106;-74
2023/10/11 01:12:22;;;;;;;22.85;8.85;;;;;;;16.35;100.00;101128.72;5021783;28;20072;-73
2023/10/11 01:14:57;;;;;;;14.55;9.23;;;;;;;16.33;100.00;101125.50;5042602;28;20131;-74
2023/10/11 01:17:23;;;;;;;24.08;9.52;;;;;;;16.34;100.00;101121.47;5032856;28;20063;-74
2023/10/11 01:19:51;;;;;;;18.77;8.63;;;;;;;16.30;100.00;101120.69;5050481;28;20480;-73
2023/10/11 01:22:18;;;;;;;14.90;7.70;;;;;;;16.35;100.00;101106.13;5040104;28;20111;-74
2023/10/11 01:24:44;;;;;;;21.02;9.27;;;;;;;16.32;100.00;101114.59;5022500;28;20494;-74
2023/10/11 01:27:13;;;;;;;15.35;7.38;;;;;;;16.27;100.00;101110.19;5045582;28;20041;-74
2023/10/11 01:29:42;;;;;;;16.88;7.88;;;;;;;16.28;100.00;101103.34;5038015;28;20036;-74
2023/10/11 01:32:07;;;;;;;16.80;8.27;;;;;;;16.30;100.00;101103.72;5041891;28;20025;-74
2023/10/11 01:34:32;;;;;;;20.10;8.77;;;;;;;16.26;100.00;101105.78;5026323;28;20036;-74
2023/10/11 01:36:59;;;;;;;17.08;7.22;;;;;;;16.25;100.00;101112.63;5041544;28;20020;-74
2023/10/11 01:39:24;;;;;;;13.73;8.68;;;;;;;16.26;100.00;101092.44;5043348;28;20040;-73
2023/10/11 01:41:54;;;;;;;18.05;8.40;;;;;;;16.26;100.00;101106.56;5039879;28;20021;-74
2023/10/11 01:44:22;;;;;;;17.55;8.30;;;;;;;16.26;100.00;101114.25;5045331;28;20462;-74
2023/10/11 01:46:47;;;;;;;17.63;9.25;;;;;;;16.25;100.00;101112.63;5039930;28;20021;-74
2023/10/11 01:49:14;;;;;;;15.10;7.75;;;;;;;16.27;100.00;101093.25;5032328;28;20029;-73
2023/10/11 01:51:46;;;;;;;20.27;9.05;;;;;;;16.21;100.00;101097.72;5041326;28;20049;-74
2023/10/11 01:54:11;;;;;;;13.50;8.05;;;;;;;16.23;100.00;101090.47;5039780;28;20115;-74
2023/10/11 01:56:38;;;;;;;19.13;7.95;;;;;;;16.21;100.00;101090.06;5041387;28;20464;-74
2023/10/11 01:59:04;;;;;;;19.75;8.80;;;;;;;16.22;100.00;101090.88;5035749;28;20037;-74
2023/10/11 02:01:38;;;;;;;17.38;7.53;;;;;;;16.24;100.00;101088.44;5040449;28;20032;-74
2023/10/11 02:04:04;;;;;;;17.58;8.18;;;;;;;16.22;100.00;101090.88;5039842;28;20481;-74
2023/10/11 02:06:33;;;;;;;27.77;9.35;;;;;;;16.19;100.00;101086.03;5037502;28;20420;-74
2023/10/11 02:08:59;;;;;;;17.10;8.70;;;;;;;16.19;100.00;101080.38;5040400;28;20110;-74
2023/10/11 02:11:25;;;;;;;16.40;8.45;;;;;;;16.21;100.00;101075.13;5045123;28;20078;-74
2023/10/11 02:13:52;;;;;;;18.98;8.38;;;;;;;16.20;100.00;101077.16;5035473;28;20052;-73
2023/10/11 02:16:18;;;;;;;22.13;8.15;;;;;;;16.19;100.00;101075.56;5051437;28;20608;-74
2023/10/11 02:18:44;;;;;;;17.50;8.55;;;;;;;16.17;100.00;101077.16;5053244;28;20032;-74
2023/10/11 02:21:09;;;;;;;17.45;9.10;;;;;;;16.15;100.00;101069.13;5040383;28;20016;-74
2023/10/11 02:23:39;;;;;;;20.08;9.27;;;;;;;16.14;100.00;101089.28;5034025;28;20037;-74
2023/10/11 02:26:09;;;;;;;14.90;8.15;;;;;;;16.13;100.00;101070.72;5033883;28;20515;-75
2023/10/11 02:28:38;;;;;;;17.27;9.73;;;;;;;16.09;100.00;101069.97;5050924;28;20089;-75
2023/10/11 02:31:04;;;;;;;16.85;9.90;;;;;;;16.10;100.00;101074.38;5033794;28;20051;-75
2023/10/11 02:33:32;;;;;;;21.75;8.45;;;;;;;16.08;100.00;101062.69;5040333;28;20037;-74
2023/10/11 02:35:58;;;;;;;21.40;8.77;;;;;;;15.98;100.00;101065.16;5040080;28;20103;-74
2023/10/11 02:38:25;;;;;;;22.55;9.13;;;;;;;16.03;100.00;101073.19;5022529;28;20602;-75
2023/10/11 02:40:55;;;;;;;21.45;8.68;;;;;;;16.08;100.00;101057.84;5048032;28;20036;-75
2023/10/11 02:43:28;;;;;;;18.88;9.13;;;;;;;16.04;100.00;101057.06;5053663;28;20033;-75
2023/10/11 02:45:53;;;;;;;21.35;8.93;;;;;;;16.00;100.00;101044.97;5047295;28;20094;-74
2023/10/11 02:48:19;;;;;;;15.90;8.32;;;;;;;16.00;100.00;101045.81;5060989;28;20017;-75
2023/10/11 02:50:49;;;;;;;23.10;9.65;;;;;;;15.99;100.00;101049.81;5043050;28;20084;-74
2023/10/11 02:53:21;;;;;;;17.02;9.10;;;;;;;15.98;100.00;101051.06;5043000;28;20445;-74
2023/10/11 02:56:05;;;;;;;22.50;8.65;;;;;;;16.02;100.00;101060.31;5045641;28;20044;-74
2023/10/11 02:58:30;;;;;;;14.63;7.32;;;;;;;16.04;100.00;101057.06;5039523;28;20026;-75
2023/10/11 03:00:59;;;;;;;17.63;7.50;;;;;;;16.05;100.00;101053.84;5029129;28;20047;-74
2023/10/11 03:03:26;;;;;;;21.27;8.43;;;;;;;16.04;100.00;101057.88;5045165;28;20384;-74
2023/10/11 03:05:53;;;;;;;14.90;6.85;;;;;;;16.02;100.00;101054.66;5047664;28;20029;-74
2023/10/11 03:08:19;;;;;;;30.75;10.32;;;;;;;15.99;100.00;101065.97;5035432;28;20140;-75
2023/10/11 03:11:05;;;;;;;14.95;7.75;;;;;;;15.97;100.00;101066.38;5050706;28;20025;-75
2023/10/11 03:13:38;;;;;;;16.33;8.32;;;;;;;15.96;100.00;101049.84;5052108;28;20036;-74
2023/10/11 03:16:10;;;;;;;18.25;7.90;;;;;;;15.99;100.00;101049.81;5046105;28;20052;-74
2023/10/11 03:18:39;;;;;;;;;;;;;;;15.97;100.00;101046.59;5039699;28;20033;-75
2023/10/11 03:21:21;;;;;;;19.40;8.77;;;;;;;15.92;100.00;101038.59;5049743;28;19989;-74
2023/10/11 03:23:48;;;;;;;16.40;8.68;;;;;;;15.93;100.00;101034.53;5044757;28;20567;-74
2023/10/11 03:26:22;;;;;;;18.77;8.00;;;;;;;15.95;100.00;101028.47;5034277;28;20026;-74
2023/10/11 03:28:57;;;;;;;22.75;10.38;;;;;;;15.92;100.00;101029.31;5020633;28;20904;-74
2023/10/11 03:31:33;;;;;;;19.73;9.10;;;;;;;15.95;100.00;101028.47;5044209;28;20373;-74
2023/10/11 03:33:59;;;;;;;17.20;8.02;;;;;;;15.97;100.00;101026.06;5041762;28;21521;-75
2023/10/11 03:36:49;;;;;;;17.08;7.63;;;;;;;15.93;100.00;101023.25;5042394;28;20047;-74
2023/10/11 03:39:16;;;;;;;13.38;7.07;;;;;;;15.92;100.00;101032.94;5046425;28;20045;-75
2023/10/11 03:41:45;;;;;;;21.58;9.30;;;;;;;15.91;100.00;101027.69;5036445;28;20087;-74
2023/10/11 03:44:17;;;;;;;14.43;7.50;;;;;;;15.93;100.00;101013.97;5043380;28;20033;-74
2023/10/11 03:46:47;;;;;;;14.80;8.23;;;;;;;15.93;100.00;101017.59;5053702;28;20036;-74
2023/10/11 03:51:48;;;;;;;15.27;9.30;;;;;;;15.91;100.00;101013.59;5042307;28;20029;-74
2023/10/11 03:54:22;;;;;;;23.13;9.80;;;;;;;15.94;100.00;101016.41;5032958;28;20186;-74
2023/10/11 03:56:54;;;;;;;19.92;7.90;;;;;;;15.97;100.00;101018.38;5055196;28;20103;-74
2023/10/11 03:59:20;;;;;;;22.90;9.02;;;;;;;15.97;100.00;101017.59;5042408;28;20417;-74
2023/10/11 04:01:46;;;;;;;18.83;9.02;;;;;;;15.95;100.00;101012.34;5028825;28;20041;-74
2023/10/11 04:04:12;;;;;;;23.95;9.90;;;;;;;15.92;100.00;101010.34;5057187;28;20040;-74
2023/10/11 04:06:37;;;;;;;17.48;8.82;;;;;;;15.95;100.00;101011.53;5054541;28;20107;-74
2023/10/11 04:09:03;;;;;;;21.20;8.98;;;;;;;15.97;100.00;101012.72;5038681;28;20044;-75
2023/10/11 04:11:54;;;;;;;18.95;8.68;;;;;;;15.96;100.00;101008.31;5037339;28;20021;-74
2023/10/11 04:14:24;;;;;;;18.10;9.65;;;;;;;15.97;100.00;101000.66;5024116;28;20761;-75
2023/10/11 04:16:52;;;;;;;16.35;8.68;;;;;;;15.96;100.00;101008.31;5043663;28;20032;-74
2023/10/11 04:19:21;;;;;;;24.65;9.32;;;;;;;15.97;100.00;101007.09;5036153;28;20027;-75
2023/10/11 04:24:13;;;;;;;21.38;10.10;;;;;;;15.97;100.00;101001.44;5041707;28;20509;-74
2023/10/11 04:26:39;;;;;;;18.58;9.10;;;;;;;16.01;100.00;101004.25;5045727;28;20112;-74
2023/10/11 04:29:17;;;;;;;17.10;9.07;;;;;;;15.97;100.00;100995.78;5047473;28;20107;-74
2023/10/11 04:31:54;;;;;;;17.48;10.68;;;;;;;15.99;100.00;101010.31;5037511;28;20823;-74
2023/10/11 04:34:23;;;;;;;26.15;9.98;;;;;;;15.95;100.00;101006.69;5040365;28;20079;-74
2023/10/11 04:36:55;;;;;;;22.17;10.45;;;;;;;15.99;100.00;101010.31;5046442;28;20749;-74
2023/10/11 04:39:27;;;;;;;21.17;10.02;;;;;;;15.99;100.00;101027.25;5036088;28;20060;-76
2023/10/11 04:41:59;;;;;;;20.55;10.18;;;;;;;15.98;100.00;101031.28;5036483;28;20371;-74
2023/10/11 04:44:35;;;;;;;19.27;9.40;;;;;;;15.97;100.00;101026.06;5044516;28;20020;-74
2023/10/11 04:47:00;;;;;;;26.30;11.07;;;;;;;15.95;100.00;101026.47;5029475;28;20274;-74
2023/10/11 04:49:30;;;;;;;28.27;11.07;;;;;;;15.95;100.00;101020.81;5033062;28;20031;-75
2023/10/11 04:51:57;;;;;;;25.23;11.05;;;;;;;15.92;100.00;101013.19;5021385;28;20028;-74
2023/10/11 04:54:36;;;;;;;26.52;12.77;;;;;;;15.96;100.00;101016.78;5036804;28;20104;-74
2023/10/11 04:57:07;;;;;;;25.42;12.63;;;;;;;15.93;100.00;101009.13;5039638;28;20040;-74
2023/10/11 05:01:58;;;;;;;32.22;11.55;;;;;;;15.93;100.00;101003.47;5027931;28;20037;-74
2023/10/11 05:04:28;;;;;;;21.80;10.40;;;;;;;15.96;100.00;101005.50;5032681;28;20044;-74
2023/10/11 05:06:55;;;;;;;26.02;11.52;;;;;;;15.96;100.00;101004.66;5034492;28;20504;-74
2023/10/11 05:11:50;;;;;;;28.70;12.48;;;;;;;15.90;100.00;100997.88;5032748;28;20617;-74
2023/10/11 05:14:29;;;;;;;24.55;10.77;;;;;;;15.81;100.00;101010.41;5021403;28;20480;-74
2023/10/11 05:16:59;;;;;;;22.90;10.75;;;;;;;15.85;100.00;101016.03;5035926;28;20100;-74
2023/10/11 05:19:34;;;;;;;26.65;12.02;;;;;;;15.83;100.00;101015.63;5015847;28;20025;-75
2023/10/11 05:22:00;;;;;;;22.42;11.40;;;;;;;15.80;100.00;101008.00;5031705;28;20076;-74
2023/10/11 05:24:33;;;;;;;26.85;11.38;;;;;;;15.81;100.00;101018.88;5030197;28;20123;-74
2023/10/11 05:27:05;;;;;;;22.80;10.82;;;;;;;15.79;100.00;101007.19;5030584;28;20047;-74
2023/10/11 05:29:36;;;;;;;28.08;10.80;;;;;;;15.78;100.00;101004.78;5028858;28;20028;-74
2023/10/11 05:32:20;;;;;;;29.30;11.30;;;;;;;15.78;100.00;101013.25;5040058;28;20124;-74
2023/10/11 05:35:07;;;;;;;27.75;12.60;;;;;;;15.76;100.00;101007.22;5034124;28;20029;-74
2023/10/11 05:51:12;;;;;;;21.98;9.90;;;;;;;15.80;100.00;101002.34;5036716;28;20129;-72
2023/10/11 05:53:40;;;;;;;31.38;11.93;;;;;;;15.73;100.00;101000.38;5036894;28;20163;-73
2023/10/11 05:56:08;;;;;;;18.58;11.07;;;;;;;15.75;100.00;101016.91;5031974;28;20032;-73
2023/10/11 05:58:34;;;;;;;24.27;11.20;;;;;;;15.67;100.00;101018.91;5019248;28;20029;-75
2023/10/11 06:01:05;;;;;;;30.17;13.32;;;;;;;15.74;100.00;101040.69;5032224;28;20116;-72
2023/10/11 06:03:35;;;;;;;32.47;13.60;;;;;;;15.68;100.00;101045.09;5030104;28;20439;-72
2023/10/11 06:06:11;;;;;;;29.13;11.63;;;;;;;15.70;100.00;101059.59;5019186;28;20485;-74
2023/10/11 06:08:38;;;;;;;30.23;11.98;;;;;;;15.68;100.00;101045.09;5031231;28;20111;-73
2023/10/11 06:11:08;;;;;;;22.77;11.90;;;;;;;15.70;100.00;101045.50;5030647;28;20061;-75
2023/10/11 06:13:33;;;;;;;28.48;13.68;;;;;;;15.64;100.00;101034.66;5029884;28;20402;-75
2023/10/11 06:15:59;;;;;;;26.05;12.82;;;;;;;15.63;100.00;101032.22;5030426;28;20036;-75
2023/10/11 06:18:43;;;;;;;30.65;11.85;;;;;;;15.63;100.00;101012.47;5036176;28;20057;-77
2023/10/11 06:21:30;;;;;;;32.00;14.18;;;;;;;15.62;100.00;101022.97;5020128;28;20025;-75
2023/10/11 06:24:04;;;;;;;28.38;12.40;;;;;;;15.64;100.00;101026.19;5020212;28;20128;-74
2023/10/11 06:26:52;;;;;;;27.92;14.05;;;;;;;15.63;100.00;101024.56;5033185;28;20387;-74
2023/10/11 06:29:25;;;;;;;21.98;10.85;;;;;;;15.91;100.00;101036.97;5028991;28;20592;-75
2023/10/11 06:31:53;;;;;;;28.08;11.93;;;;;;;16.18;100.00;101039.25;5035782;28;20017;-73
2023/10/11 06:34:24;;;;;;;28.25;13.35;;;;;;;15.91;100.00;101039.78;5011523;28;20135;-74
2023/10/11 06:36:51;;;;;;;25.15;12.43;;;;;;;15.81;100.00;101026.53;5035570;28;20064;-74
2023/10/11 06:42:22;;;;;;;24.08;11.93;;;;;;;15.77;100.00;101023.75;5012317;28;20159;-74
2023/10/11 06:44:57;;;;;;;35.05;14.35;;;;;;;15.73;100.00;101041.91;5032923;28;20052;-74
2023/10/11 06:47:23;;;;;;;34.67;14.98;;;;;;;15.68;100.00;101033.81;5036744;28;20040;-73
2023/10/11 06:49:54;;;;;;;26.30;12.70;;;;;;;15.74;100.00;101027.38;5032523;28;20140;-74
2023/10/11 06:52:25;;;;;;;35.20;14.30;;;;;;;15.76;100.00;101041.88;5035295;28;20074;-74
2023/10/11 06:57:45;;;;;;;29.45;13.65;;;;;;;15.84;100.00;101031.38;5050577;28;20116;-74
2023/10/11 07:00:20;;;;;;;31.77;13.45;;;;;;;15.87;100.00;101036.16;5060349;28;20325;-72
2023/10/11 07:02:55;;;;;;;30.63;12.93;;;;;;;15.89;100.00;101027.31;5061952;28;20093;-74
2023/10/11 07:05:25;;;;;;;22.60;13.07;;;;;;;15.93;100.00;101028.09;5062744;28;20102;-71
2023/10/11 07:07:52;;;;;;;31.50;14.35;;;;;;;15.93;100.00;101028.88;5065203;28;20037;-75
2023/10/11 07:10:33;;;;;;;39.03;15.65;;;;;;;15.94;100.00;101035.31;5064456;28;20090;-72
2023/10/11 07:13:03;;;;;;;36.23;16.17;;;;;;;15.97;100.00;101017.59;5059681;28;20040;-74
2023/10/11 07:15:42;;;;;;;31.58;14.45;;;;;;;15.96;100.00;101028.06;5046495;28;20036;-73
2023/10/11 07:18:27;;;;;;;38.05;17.92;;;;;;;15.97;100.00;101038.13;5049442;28;20028;-74
2023/10/11 07:21:15;;;;;;;30.42;14.98;;;;;;;16.00;100.00;101040.16;5042563;28;20039;-73
2023/10/11 07:26:48;;;;;;;32.65;16.15;;;;;;;16.06;100.00;101046.16;5066293;28;21505;-73
2023/10/11 07:29:13;;;;;;;35.08;16.33;;;;;;;16.08;100.00;101040.09;5057870;28;20081;-73
2023/10/11 07:31:48;;;;;;;32.80;15.55;;;;;;;16.07;100.00;101033.66;5043131;28;20021;-74
2023/10/11 07:34:17;;;;;;;42.47;17.15;;;;;;;16.08;100.00;101026.00;5043770;28;20048;-74
2023/10/11 07:36:43;;;;;;;35.08;16.55;;;;;;;16.12;100.00;101023.94;5057236;28;20063;-73
2023/10/11 07:39:33;;;;;;;39.10;17.27;;;;;;;16.14;100.00;101018.69;5039776;28;20032;-73
2023/10/11 07:42:08;;;;;;;37.72;18.55;;;;;;;16.20;100.00;101036.81;5054382;28;20118;-73
2023/10/11 07:44:39;;;;;;;47.78;18.52;;;;;;;16.25;100.00;101044.84;5058406;28;20559;-73
2023/10/11 07:47:15;;;;;;;39.65;18.25;;;;;;;16.29;100.00;101056.91;5061544;28;20549;-73
2023/10/11 07:49:41;;;;;;;43.05;19.05;;;;;;;16.32;100.00;101043.97;5058059;28;20032;-74
2023/10/11 07:52:10;;;;;;;38.30;17.85;;;;;;;16.31;100.00;101039.56;5063967;28;20024;-74
2023/10/11 07:54:39;;;;;;;43.75;18.42;;;;;;;16.34;100.00;101042.38;5057044;28;20037;-74
2023/10/11 07:57:04;;;;;;;38.17;18.02;;;;;;;16.37;100.00;101040.72;5038394;28;20056;-74
2023/10/11 07:59:30;;;;;;;49.83;19.38;;;;;;;16.36;100.00;101051.25;5053950;28;20508;-74
2023/10/11 08:02:07;;;;;;;33.97;17.17;;;;;;;16.33;100.00;101039.94;5049795;28;20094;-73
2023/10/11 08:04:35;;;;;;;38.30;15.73;;;;;;;16.36;100.00;101048.41;5064850;28;20123;-73
2023/10/11 08:07:03;;;;;;;35.78;17.52;;;;;;;16.34;100.00;101035.91;5060488;28;20051;-74
2023/10/11 08:09:52;;;;;;;43.55;20.50;;;;;;;16.37;100.00;101037.91;5048455;28;20473;-76
2023/10/11 08:12:19;;;;;;;39.60;20.15;;;;;;;16.37;100.00;101030.22;5058922;28;20020;-76
2023/10/11 08:14:46;;;;;;;37.25;16.73;;;;;;;16.38;100.00;101034.69;5067036;28;20040;-75
2023/10/11 08:17:15;;;;;;;41.58;15.75;;;;;;;16.37;100.00;101033.06;5045746;28;20577;-76
2023/10/11 08:19:44;;;;;;;38.13;16.42;;;;;;;16.44;100.00;101027.38;5050746;28;20032;-77
2023/10/11 08:22:17;;;;;;;42.42;18.40;;;;;;;16.44;100.00;101015.25;5059497;28;20107;-77
2023/10/11 08:24:49;;;;;;;;;;;;;;;16.48;100.00;101030.16;5051779;28;24582;-77
2023/10/11 08:27:27;;;;;;;39.35;17.17;;;;;;;16.48;100.00;101023.69;5044856;28;19934;-77
2023/10/11 08:30:22;;;;;;;36.50;16.45;;;;;;;16.52;100.00;101030.94;5056280;28;20036;-75
2023/10/11 08:32:42;;;;;;;39.80;16.33;;;;;;;16.52;100.00;101044.25;5057794;28;20067;-74
2023/10/11 08:35:31;;;;;;;31.85;15.32;;;;;;;16.54;100.00;101055.94;5062114;28;20033;-75
2023/10/11 08:38:02;;;;;;;35.67;16.98;;;;;;;16.55;100.00;101051.88;5044922;28;20035;-74
2023/10/11 08:40:35;;;;;;;35.05;16.27;;;;;;;16.53;100.00;101048.69;5055209;28;21153;-75
2023/10/11 08:43:01;;;;;;;43.08;16.80;;;;;;;16.56;100.00;101053.50;5040278;28;20370;-74
2023/10/11 08:45:29;;;;;;;30.70;16.05;;;;;;;16.57;100.00;101055.09;5048896;28;20339;-75
2023/10/11 08:47:57;;;;;;;34.50;16.27;;;;;;;16.54;100.00;101053.13;5046626;28;20037;-75
2023/10/11 08:50:26;;;;;;;35.22;14.40;;;;;;;16.54;100.00;101055.94;5058714;28;20024;-75
2023/10/11 08:52:54;;;;;;;32.38;16.10;;;;;;;16.57;100.00;101053.09;5052064;28;20039;-74
2023/10/11 08:55:24;;;;;;;39.60;16.67;;;;;;;16.56;100.00;101053.50;5051630;28;20066;-74
2023/10/11 08:57:50;;;;;;;29.52;15.25;;;;;;;16.52;100.00;101038.59;5055705;28;20032;-74
2023/10/11 09:00:28;;;;;;;33.00;15.35;;;;;;;16.57;100.00;101057.94;5056469;28;20040;-74
2023/10/11 09:02:53;;;;;;;40.42;17.13;;;;;;;16.58;100.00;101062.38;5051324;28;20369;-74
2023/10/11 09:05:32;;;;;;;33.28;16.42;;;;;;;16.61;100.00;101061.53;5059781;28;20039;-74
2023/10/11 09:08:01;;;;;;;29.83;15.85;;;;;;;16.61;100.00;101067.19;5043643;28;20040;-74
2023/10/11 09:10:28;;;;;;;31.15;15.57;;;;;;;16.58;100.00;101057.53;5068120;28;20361;-75
2023/10/11 09:12:58;;;;;;;39.78;17.52;;;;;;;16.61;100.00;101045.41;5058259;28;20357;-74
2023/10/11 09:15:44;;;;;;;40.92;17.33;;;;;;;16.62;100.00;101058.31;5056219;28;20040;-74
2023/10/11 09:18:14;;;;;;;37.85;15.95;;;;;;;16.61;100.00;101050.22;5060213;28;20059;-74
2023/10/11 09:21:10;;;;;;;35.13;16.38;;;;;;;16.60;100.00;101065.59;5047227;28;20170;-74
2023/10/11 09:23:46;;;;;;;38.58;17.90;;;;;;;16.59;100.00;101058.31;5056983;28;20032;-74
2023/10/11 09:26:13;;;;;;;37.90;15.48;;;;;;;16.60;100.00;101071.25;5057647;28;20048;-74
2023/10/11 09:28:41;;;;;;;38.88;17.77;;;;;;;16.60;100.00;101071.25;5055397;28;20095;-74
2023/10/11 09:31:17;;;;;;;38.47;17.08;;;;;;;16.66;100.00;101081.69;5048691;28;20103;-74
2023/10/11 09:33:53;;;;;;;37.78;17.00;;;;;;;16.63;100.00;101084.53;5057794;28;20496;-74
2023/10/11 09:36:20;;;;;;;35.00;15.75;;;;;;;16.66;100.00;101093.00;5060351;28;20024;-74
2023/10/11 09:38:54;;;;;;;33.38;17.00;;;;;;;16.63;100.00;101099.50;5060054;28;20028;-74
2023/10/11 09:41:23;;;;;;;35.75;16.50;;;;;;;16.63;100.00;101107.16;5069487;28;20112;-74
2023/10/11 09:43:49;;;;;;;38.40;17.95;;;;;;;16.63;100.00;101109.97;5044860;28;20040;-74
2023/10/11 09:46:14;;;;;;;42.20;19.63;;;;;;;16.60;100.00;101108.00;5065206;28;20059;-73
2023/10/11 09:48:40;;;;;;;40.95;17.92;;;;;;;16.65;100.00;101118.84;5065694;28;20384;-74
2023/10/11 09:51:08;;;;;;;44.20;21.33;;;;;;;16.65;100.00;101121.66;5040714;28;20062;-73
2023/10/11 09:53:41;;;;;;;39.00;19.15;;;;;;;16.63;100.00;101122.09;5061389;28;20105;-72
2023/10/11 09:56:17;;;;;;;40.30;18.92;;;;;;;16.63;100.00;101133.41;5058255;28;20032;-73
2023/10/11 09:58:54;;;;;;;38.70;18.92;;;;;;;16.61;100.00;101135.00;5048916;28;20029;-75
2023/10/11 10:01:51;;;;;;;40.15;19.20;;;;;;;16.63;100.00;101138.22;5064242;28;20020;-75
2023/10/11 10:04:20;;;;;;;39.63;18.40;;;;;;;16.58;100.00;101138.69;5020112;28;20090;-75
2023/10/11 10:07:11;;;;;;;37.38;17.90;;;;;;;16.62;100.00;101147.94;5058775;28;20470;-75
2023/10/11 10:09:52;;;;;;;44.30;17.73;;;;;;;16.62;100.00;101137.44;5050012;28;20035;-75
2023/10/11 10:12:21;;;;;;;31.80;17.05;;;;;;;16.67;100.00;101127.72;5053712;28;20098;-75
2023/10/11 10:14:53;;;;;;;34.10;16.52;;;;;;;16.76;100.00;101136.56;5061308;28;20035;-75
2023/10/11 10:17:19;;;;;;;35.85;15.13;;;;;;;16.79;100.00;101120.78;5061031;28;20469;-75
2023/10/11 10:19:48;;;;;;;23.70;13.00;;;;;;;16.92;100.00;101118.28;5056156;28;20036;-75
2023/10/11 10:22:23;;;;;;;29.33;12.50;;;;;;;17.06;100.00;101115.34;5053609;28;20439;-75
2023/10/11 10:24:54;;;;;;;25.35;12.85;;;;;;;17.18;100.00;101111.19;5051317;28;20067;-75
2023/10/11 10:27:33;;;;;;;24.60;11.95;;;;;;;17.26;100.00;101113.53;5041208;28;20028;-75
2023/10/11 10:30:00;;;;;;;18.83;9.27;;;;;;;17.48;100.00;101116.16;5056302;28;20025;-75
2023/10/11 10:32:26;;;;;;;24.20;10.00;;;;;;;17.41;100.00;101114.22;5063307;28;20092;-75
2023/10/11 10:35:19;;;;;;;24.98;9.18;;;;;;;17.56;100.00;101131.03;5063883;28;20032;-74
2023/10/11 10:37:47;;;;;;;21.65;8.45;;;;;;;17.58;100.00;101117.25;5055700;28;20733;-73
2023/10/11 10:40:26;;;;;;;20.92;8.43;;;;;;;17.70;100.00;101107.44;5056607;28;20043;-74
2023/10/11 10:43:08;;;;;;;17.92;7.47;;;;;;;18.08;100.00;101123.16;5059216;28;20098;-73
2023/10/11 10:45:35;;;;;;;21.67;7.75;;;;;;;17.99;100.00;101119.25;5064623;28;20031;-74
2023/10/11 10:48:20;;;;;;;19.52;6.90;;;;;;;18.10;100.00;101119.13;5059393;28;20612;-74
2023/10/11 10:50:54;;;;;;;13.32;6.47;;;;;;;18.02;100.00;101119.19;5064818;28;20051;-74
2023/10/11 10:53:20;;;;;;;14.68;6.15;;;;;;;18.07;100.00;101104.56;5057582;28;20029;-74
2023/10/11 10:55:46;;;;;;;12.07;5.00;;;;;;;18.20;100.00;101095.50;5037052;28;20076;-75
2023/10/11 10:58:22;;;;;;;14.38;7.65;;;;;;;18.31;100.00;101118.03;5053173;28;20025;-75
2023/10/11 11:00:59;;;;;;;21.10;5.85;;;;;;;18.33;100.00;101110.72;5040722;28;20039;-76
2023/10/11 11:03:27;;;;;;;14.27;6.03;;;;;;;18.44;100.00;101111.34;5057311;28;20024;-75
2023/10/11 11:05:57;;;;;;;14.25;6.38;;;;;;;18.43;100.00;101103.28;5066232;28;20040;-75
2023/10/11 11:08:27;;;;;;;17.27;6.55;;;;;;;18.44;100.00;101094.34;5060543;28;20033;-76
2023/10/11 11:11:19;;;;;;;12.52;5.68;;;;;;;18.49;100.00;101076.88;5054455;28;20066;-75
2023/10/11 11:13:49;;;;;;;14.90;7.23;;;;;;;18.63;100.00;101061.66;5062182;28;20051;-75
2023/10/11 11:16:19;;;;;;;11.63;5.38;;;;;;;18.71;100.00;101073.69;5066577;28;20028;-76
2023/10/11 11:18:45;;;;;;;14.93;6.22;;;;;;;18.59;100.00;101060.91;5045664;28;20163;-75
2023/10/11 11:21:29;;;;;;;12.88;5.97;;;;;;;18.55;100.00;101070.72;5055847;28;20031;-75
2023/10/11 11:23:55;;;;;;;13.45;5.63;;;;;;;18.46;100.00;101080.53;5039491;28;20029;-79
2023/10/11 11:26:30;;;;;;;12.80;5.95;;;;;;;18.59;100.00;101065.78;5063826;28;20343;-77
2023/10/11 11:29:16;;;;;;;15.10;5.07;;;;;;;18.53;100.00;101074.00;5043954;28;20049;-77
2023/10/11 11:31:52;;;;;;;15.77;5.60;;;;;;;18.60;100.00;101073.06;5042274;28;20037;-76
2023/10/11 11:34:27;;;;;;;13.23;6.10;;;;;;;18.61;100.00;101086.00;5033290;28;20082;-76
2023/10/11 11:37:00;;;;;;;8.52;5.15;;;;;;;18.67;100.00;101089.97;5029835;28;20021;-76
2023/10/11 11:39:26;;;;;;;12.63;4.68;;;;;;;18.58;100.00;101075.53;5032046;28;20477;-77
2023/10/11 11:41:57;;;;;;;8.85;5.25;;;;;;;18.60;100.00;101076.69;5026028;28;20033;-76
2023/10/11 11:44:23;;;;;;;11.77;5.22;;;;;;;18.67;100.00;101070.13;5048090;28;20025;-75
2023/10/11 11:46:53;;;;;;;9.75;4.82;;;;;;;18.81;100.00;101072.75;5038904;28;20064;-75
2023/10/11 11:49:23;;;;;;;12.70;5.60;;;;;;;18.67;100.00;101072.94;5037673;28;20473;-77
2023/10/11 11:51:53;;;;;;;16.80;6.10;;;;;;;18.62;100.00;101070.63;5012422;28;20040;-74
2023/10/11 11:54:19;;;;;;;11.10;6.05;;;;;;;18.62;100.00;101059.28;5047634;28;20043;-74
2023/10/11 11:56:45;;;;;;;15.25;6.72;;;;;;;18.59;100.00;101049.56;5042148;28;20033;-74
2023/10/11 11:59:19;;;;;;;19.67;7.50;;;;;;;18.64;100.00;101070.97;5050696;28;20031;-74
2023/10/11 12:01:49;;;;;;;18.40;6.60;;;;;;;18.66;100.00;101060.03;5040307;28;20056;-74